Cassilandia, Brazil
Current Conditions -  °F | °C
As of 9:50 AM on Saturday 25 Oct 2014 (Local Time) from SBAU Reporting Station
Drizzle Drizzle  
Wind Chill: 73°   Ceiling: 3500
Heat Index: 73°   Visibility: 5mi
Dew Point: 70°   Wind: 6mph
Humidity: 88%   Direction: 100°E
Pressure: 30"   Gusts: NA
Location:  19.11°S, 51.73°W
Report Text: SBAU 251250Z 10005KT 8000 -DZ SCT012 BKN035 BKN090 23/21 Q1016
Loading
Personal Weather Stations






























Interactive Weather Map
Tropical Storm Tracking
New forecast layout! Learn more

10-Day Weather Forecast

Advertisements
Track Severe Weather on mobile